createdAt,value
2022-08-04T00:04:09.859Z,6.63
2022-08-04T00:09:35.909Z,7.83
2022-08-04T00:14:36.303Z,9.93
2022-08-04T00:19:38.053Z,6.25
2022-08-04T00:24:36.298Z,11.15
2022-08-04T00:29:34.881Z,10.35
2022-08-04T00:34:32.028Z,9.77
2022-08-04T00:39:30.151Z,8.13
2022-08-04T00:44:35.673Z,9.00
2022-08-04T00:49:57.336Z,8.67
2022-08-04T00:55:05.408Z,9.32
2022-08-04T01:00:11.840Z,8.45
2022-08-04T01:05:27.300Z,8.23
2022-08-04T01:10:48.470Z,6.57
2022-08-04T01:16:00.549Z,7.55
2022-08-04T01:21:19.237Z,8.63
2022-08-04T01:26:53.713Z,7.53
2022-08-04T01:32:02.483Z,6.90
2022-08-04T01:37:08.251Z,8.00
2022-08-04T01:42:06.078Z,7.13
2022-08-04T01:47:07.868Z,8.48
2022-08-04T01:52:05.905Z,8.07
2022-08-04T01:57:37.674Z,7.25
2022-08-04T02:02:25.159Z,5.38
2022-08-04T02:07:36.778Z,6.88
2022-08-04T02:13:03.913Z,7.22
2022-08-04T02:18:12.655Z,6.63
2022-08-04T02:23:14.384Z,7.38
2022-08-04T02:28:26.395Z,10.63
2022-08-04T02:33:42.807Z,10.57
2022-08-04T02:43:51.811Z,7.33
2022-08-04T02:48:50.766Z,6.85
2022-08-04T02:53:53.111Z,7.25
2022-08-04T02:58:53.044Z,7.70
2022-08-04T03:04:24.923Z,6.75
2022-08-04T03:09:51.651Z,9.13
2022-08-04T03:15:09.689Z,5.28
2022-08-04T03:20:44.384Z,8.05
2022-08-04T03:26:25.145Z,7.55
2022-08-04T03:31:30.429Z,7.38
2022-08-04T03:36:44.448Z,8.10
2022-08-04T03:42:03.266Z,9.77
2022-08-04T03:47:18.898Z,9.10
2022-08-04T03:52:55.771Z,10.55
2022-08-04T03:58:28.489Z,7.00
2022-08-04T04:03:45.614Z,5.70
2022-08-04T04:08:45.581Z,9.05
2022-08-04T04:14:35.646Z,8.45
2022-08-04T04:19:37.896Z,7.55
2022-08-04T04:24:34.595Z,10.40
2022-08-04T04:30:04.384Z,8.40
2022-08-04T04:35:27.269Z,7.15
2022-08-04T04:41:02.937Z,10.90
2022-08-04T04:46:24.963Z,11.43
2022-08-04T04:51:34.095Z,7.70
2022-08-04T04:56:38.724Z,9.18
2022-08-04T05:01:53.166Z,7.38
2022-08-04T05:07:07.614Z,8.93
2022-08-04T05:14:37.626Z,9.20
2022-08-04T05:19:08.383Z,7.38
2022-08-04T05:30:12.101Z,12.57
2022-08-04T05:35:12.853Z,6.70
2022-08-04T05:40:11.171Z,9.40
2022-08-04T05:45:09.478Z,8.05
2022-08-04T05:50:07.199Z,7.03
2022-08-04T05:55:04.972Z,5.60
2022-08-04T06:00:14.828Z,10.07
2022-08-04T06:05:25.420Z,6.70
2022-08-04T06:10:29.250Z,7.93
2022-08-04T06:20:39.637Z,14.10
2022-08-04T06:25:50.465Z,8.75
2022-08-04T06:30:49.829Z,8.10
2022-08-04T06:35:46.654Z,9.75
2022-08-04T06:40:43.685Z,11.65
2022-08-04T06:45:41.887Z,8.85
2022-08-04T06:51:24.662Z,6.30
2022-08-04T06:55:57.518Z,7.57
2022-08-04T07:00:54.977Z,10.32
2022-08-04T07:05:52.270Z,8.63
2022-08-04T07:10:51.800Z,7.43
2022-08-04T07:15:49.054Z,10.65
2022-08-04T07:21:39.201Z,7.55
2022-08-04T07:27:07.059Z,10.00
2022-08-04T07:32:16.339Z,8.38
2022-08-04T07:37:44.659Z,7.55
2022-08-04T07:43:36.486Z,6.75
2022-08-04T07:49:54.369Z,9.07
2022-08-04T07:54:45.561Z,5.65
2022-08-04T07:59:50.269Z,7.82
2022-08-04T08:05:04.172Z,6.53
2022-08-04T08:22:21.101Z,9.10
2022-08-04T08:34:10.975Z,10.35
2022-08-04T08:45:54.922Z,7.93
2022-08-04T08:51:31.997Z,7.95
2022-08-04T08:56:45.951Z,6.05
2022-08-04T09:02:25.340Z,8.05
2022-08-04T09:07:22.048Z,7.50
2022-08-04T09:12:25.875Z,5.75
2022-08-04T09:17:29.501Z,8.13
2022-08-04T09:22:39.989Z,7.10
2022-08-04T09:27:48.260Z,6.07
2022-08-04T09:33:44.621Z,6.75
2022-08-04T09:39:11.178Z,7.00
2022-08-04T09:44:50.316Z,7.53
2022-08-04T09:49:52.677Z,4.38
2022-08-04T09:55:26.984Z,6.05
2022-08-04T10:00:41.396Z,4.50
2022-08-04T10:06:06.801Z,7.37
2022-08-04T10:11:56.474Z,10.68
2022-08-04T10:17:26.308Z,4.97
2022-08-04T10:22:37.111Z,6.15
2022-08-04T10:27:45.416Z,4.78
2022-08-04T10:32:52.192Z,5.10
2022-08-04T10:38:03.719Z,6.15
2022-08-04T10:43:27.636Z,7.60
2022-08-04T10:48:47.224Z,7.10
2022-08-04T10:53:45.492Z,5.95
2022-08-04T10:58:55.459Z,6.53
2022-08-04T11:03:56.783Z,6.43
2022-08-04T11:08:56.029Z,5.32
2022-08-04T11:14:13.231Z,5.72
2022-08-04T11:19:43.030Z,4.32
2022-08-04T11:24:46.540Z,9.02
2022-08-04T11:29:53.518Z,6.05
2022-08-04T11:34:53.259Z,5.40
2022-08-04T11:40:12.042Z,5.53
2022-08-04T11:45:13.176Z,6.85
2022-08-04T11:50:41.462Z,9.63
2022-08-04T11:56:07.737Z,7.60
2022-08-04T12:01:23.221Z,5.63
2022-08-04T12:06:33.465Z,8.13
2022-08-04T12:11:54.565Z,6.32
2022-08-04T12:17:01.565Z,4.82
2022-08-04T12:22:01.779Z,4.70
2022-08-04T12:27:04.943Z,4.78
2022-08-04T12:32:12.644Z,5.90
2022-08-04T12:37:22.266Z,4.22
2022-08-04T12:42:34.376Z,4.40
2022-08-04T12:47:31.259Z,10.93
2022-08-04T12:52:51.584Z,4.75
2022-08-04T12:57:45.438Z,4.82
2022-08-04T13:02:43.881Z,6.20
2022-08-04T13:07:44.906Z,5.22
2022-08-04T13:13:02.563Z,5.90
2022-08-04T13:18:00.024Z,5.00
2022-08-04T13:23:09.084Z,3.97
2022-08-04T13:28:06.722Z,5.55
2022-08-04T13:33:04.616Z,6.82
2022-08-04T13:38:02.025Z,7.10
2022-08-04T13:42:58.766Z,5.95
2022-08-04T13:47:59.027Z,5.13
2022-08-04T13:53:12.236Z,6.40
2022-08-04T13:58:22.179Z,4.93
2022-08-04T14:03:53.913Z,7.50
2022-08-04T14:08:55.641Z,3.95
2022-08-04T14:13:52.294Z,6.65
2022-08-04T14:19:01.697Z,6.07
2022-08-04T14:24:00.618Z,5.25
2022-08-04T14:29:27.231Z,4.18
2022-08-04T14:34:26.842Z,5.03
2022-08-04T14:39:38.487Z,4.75
2022-08-04T14:44:53.957Z,5.85
2022-08-04T14:49:55.203Z,3.83
2022-08-04T14:54:51.750Z,5.00
2022-08-04T14:59:59.421Z,8.43
2022-08-04T15:04:59.939Z,6.68
2022-08-04T15:10:16.727Z,6.60
2022-08-04T15:15:35.221Z,12.18
2022-08-04T15:20:31.712Z,11.45
2022-08-04T15:25:28.340Z,9.75
2022-08-04T15:30:24.855Z,8.65
2022-08-04T15:35:32.006Z,14.45
2022-08-04T15:41:04.019Z,10.63
2022-08-04T15:46:41.109Z,10.75
2022-08-04T15:51:28.329Z,14.65
2022-08-04T15:56:28.850Z,11.82
2022-08-04T16:01:29.947Z,11.35
2022-08-04T16:06:27.484Z,9.70
2022-08-04T16:11:31.523Z,10.88
2022-08-04T16:16:57.380Z,10.13
2022-08-04T16:21:56.160Z,14.80
2022-08-04T16:26:57.488Z,12.35
2022-08-04T16:32:06.845Z,13.50
2022-08-04T16:37:08.947Z,10.68
2022-08-04T16:42:30.328Z,11.45
2022-08-04T16:47:48.666Z,9.70
2022-08-04T16:52:46.802Z,10.25
2022-08-04T16:57:47.231Z,9.57
2022-08-04T17:02:47.360Z,11.23
2022-08-04T17:08:28.009Z,9.48
2022-08-04T17:14:03.552Z,13.10
2022-08-04T17:24:14.247Z,9.63
2022-08-04T17:29:01.555Z,7.75
2022-08-04T17:34:00.628Z,8.60
2022-08-04T17:39:00.079Z,11.65
2022-08-04T17:44:03.875Z,11.05
2022-08-04T17:49:06.946Z,12.27
2022-08-04T17:54:04.807Z,9.23
2022-08-04T17:59:52.273Z,9.05
2022-08-04T18:04:39.188Z,10.40
2022-08-04T18:10:27.463Z,11.32
2022-08-04T18:20:45.780Z,10.07
2022-08-04T18:31:04.115Z,9.85
2022-08-04T18:36:33.379Z,9.70
2022-08-04T18:41:17.331Z,8.27
2022-08-04T18:46:15.267Z,8.00
2022-08-04T18:51:23.651Z,10.27
2022-08-04T18:56:29.745Z,8.85
2022-08-04T19:01:30.001Z,7.97
2022-08-04T19:06:45.367Z,6.40
2022-08-04T19:11:55.301Z,8.07
2022-08-04T19:16:52.748Z,7.72
2022-08-04T19:21:59.705Z,11.77
2022-08-04T19:26:58.844Z,7.20
2022-08-04T19:31:55.351Z,6.72
2022-08-04T19:36:52.555Z,7.18
2022-08-04T19:42:05.662Z,7.95
2022-08-04T19:48:17.827Z,10.95
2022-08-04T19:57:37.991Z,7.57
2022-08-04T20:02:37.985Z,9.70
2022-08-04T20:07:34.653Z,7.82
2022-08-04T20:12:31.769Z,10.00
2022-08-04T20:18:06.852Z,7.07
2022-08-04T20:22:52.593Z,5.15
2022-08-04T20:28:00.258Z,9.05
2022-08-04T20:32:58.038Z,6.32
2022-08-04T20:43:14.467Z,5.88
2022-08-04T20:48:12.422Z,6.63
2022-08-04T20:53:16.753Z,7.90
2022-08-04T20:58:13.727Z,7.05
2022-08-04T21:03:10.438Z,8.63
2022-08-04T21:08:07.137Z,10.20
2022-08-04T21:13:03.741Z,9.45
2022-08-04T21:18:04.542Z,11.63
2022-08-04T21:23:02.169Z,8.85
2022-08-04T21:28:04.296Z,12.57
2022-08-04T21:33:01.243Z,15.70
2022-08-04T21:38:01.373Z,14.70
2022-08-04T21:42:59.334Z,13.48
2022-08-04T21:47:59.508Z,12.70
2022-08-04T21:52:56.051Z,11.60
2022-08-04T21:57:54.093Z,18.17
2022-08-04T22:02:53.546Z,12.40
2022-08-04T22:07:51.925Z,17.13
2022-08-04T22:12:52.087Z,23.00
2022-08-04T22:17:48.883Z,17.67
2022-08-04T22:22:53.577Z,19.20
2022-08-04T22:28:07.820Z,16.10
2022-08-04T22:33:07.489Z,19.17
2022-08-04T22:38:07.365Z,20.83
2022-08-04T22:43:31.833Z,16.42
2022-08-04T22:48:32.005Z,21.17
2022-08-04T22:53:29.040Z,16.60
2022-08-04T22:58:28.649Z,16.48
2022-08-04T23:03:37.792Z,20.52
2022-08-04T23:08:36.378Z,20.17
2022-08-04T23:13:33.080Z,19.75
2022-08-04T23:18:29.628Z,16.95
2022-08-04T23:23:26.209Z,18.65
2022-08-04T23:28:24.388Z,20.30
2022-08-04T23:33:20.956Z,16.33
2022-08-04T23:38:31.331Z,14.05
2022-08-04T23:43:28.726Z,18.67
2022-08-04T23:48:45.581Z,16.17
2022-08-04T23:54:02.526Z,14.73
2022-08-04T23:59:00.560Z,14.48
